createdAt,value
2024-03-06T00:01:45.237Z,5.40
2024-03-06T00:04:46.789Z,5.03
2024-03-06T00:07:48.344Z,5.50
2024-03-06T00:10:49.847Z,5.50
2024-03-06T00:13:51.374Z,5.47
2024-03-06T00:16:52.908Z,5.13
2024-03-06T00:19:54.565Z,5.80
2024-03-06T00:22:56.049Z,5.70
2024-03-06T00:25:57.904Z,5.67
2024-03-06T00:28:59.425Z,5.60
2024-03-06T00:32:00.955Z,5.40
2024-03-06T00:35:02.459Z,5.33
2024-03-06T00:38:04.241Z,5.60
2024-03-06T00:41:05.956Z,5.67
2024-03-06T00:44:07.667Z,5.20
2024-03-06T00:47:09.313Z,5.60
2024-03-06T00:50:10.978Z,6.07
2024-03-06T00:53:12.564Z,5.97
2024-03-06T00:56:14.183Z,5.93
2024-03-06T00:59:15.702Z,6.10
2024-03-06T01:02:17.280Z,6.90
2024-03-06T01:05:18.911Z,7.23
2024-03-06T01:08:20.763Z,7.50
2024-03-06T01:11:22.659Z,7.80
2024-03-06T01:14:24.258Z,7.83
2024-03-06T01:17:25.871Z,8.23
2024-03-06T01:20:27.465Z,7.63
2024-03-06T01:23:28.929Z,8.00
2024-03-06T01:26:30.374Z,7.70
2024-03-06T01:29:32.020Z,7.30
2024-03-06T01:32:34.499Z,6.90
2024-03-06T01:35:35.941Z,7.27
2024-03-06T01:38:39.281Z,6.87
2024-03-06T01:41:51.869Z,6.90
2024-03-06T01:44:53.510Z,6.90
2024-03-06T01:47:55.114Z,7.03
2024-03-06T01:50:57.868Z,7.00
2024-03-06T01:54:01.768Z,6.90
2024-03-06T01:57:04.301Z,7.47
2024-03-06T02:00:08.913Z,6.87
2024-03-06T02:03:10.603Z,7.37
2024-03-06T02:06:12.957Z,7.00
2024-03-06T02:09:15.068Z,7.20
2024-03-06T02:12:17.213Z,7.27
2024-03-06T02:15:18.835Z,6.80
2024-03-06T02:18:20.377Z,6.70
2024-03-06T02:21:25.403Z,7.10
2024-03-06T02:24:26.874Z,7.17
2024-03-06T02:27:28.381Z,7.30
2024-03-06T02:30:31.682Z,7.27
2024-03-06T02:33:35.181Z,7.03
2024-03-06T02:36:37.220Z,6.83
2024-03-06T02:39:38.644Z,6.63
2024-03-06T02:42:40.308Z,6.80
2024-03-06T02:45:41.828Z,6.83
2024-03-06T02:48:43.249Z,6.80
2024-03-06T02:51:44.864Z,6.30
2024-03-06T02:54:46.296Z,6.47
2024-03-06T02:57:47.839Z,6.87
2024-03-06T03:00:49.851Z,6.60
2024-03-06T03:03:52.378Z,6.60
2024-03-06T03:06:53.813Z,6.63
2024-03-06T03:09:55.309Z,6.90
2024-03-06T03:12:56.790Z,6.37
2024-03-06T03:15:58.465Z,7.13
2024-03-06T03:18:59.934Z,6.17
2024-03-06T03:22:01.599Z,6.73
2024-03-06T03:25:03.049Z,6.50
2024-03-06T03:28:05.110Z,6.27
2024-03-06T03:31:10.302Z,6.40
2024-03-06T03:34:11.773Z,6.47
2024-03-06T03:37:14.303Z,6.87
2024-03-06T03:40:16.266Z,6.10
2024-03-06T03:43:18.425Z,6.03
2024-03-06T03:46:19.861Z,6.50
2024-03-06T03:49:21.399Z,6.27
2024-03-06T03:52:23.385Z,6.10
2024-03-06T03:55:25.968Z,6.60
2024-03-06T03:58:27.562Z,6.40
2024-03-06T04:01:29.091Z,6.53
2024-03-06T04:04:30.769Z,6.40
2024-03-06T04:07:32.593Z,6.67
2024-03-06T04:10:34.088Z,6.60
2024-03-06T04:13:39.536Z,6.73
2024-03-06T04:16:41.060Z,6.60
2024-03-06T04:19:42.555Z,7.07
2024-03-06T04:22:44.136Z,5.80
2024-03-06T04:25:45.750Z,6.10
2024-03-06T04:28:47.368Z,6.43
2024-03-06T04:31:48.989Z,7.00
2024-03-06T04:34:50.777Z,6.80
2024-03-06T04:37:52.378Z,7.03
2024-03-06T04:40:53.877Z,6.47
2024-03-06T04:43:55.370Z,6.87
2024-03-06T04:46:57.458Z,6.80
2024-03-06T04:49:59.360Z,6.77
2024-03-06T04:53:00.866Z,7.27
2024-03-06T04:56:02.444Z,6.70
2024-03-06T04:59:04.478Z,6.60
2024-03-06T05:02:06.283Z,6.57
2024-03-06T05:58:22.636Z,6.83
2024-03-06T06:01:24.284Z,7.10
2024-03-06T06:04:26.725Z,7.83
2024-03-06T06:07:28.603Z,8.60
2024-03-06T06:10:30.041Z,7.43
2024-03-06T06:13:32.021Z,7.27
2024-03-06T06:16:41.723Z,7.40
2024-03-06T06:19:44.836Z,6.93
2024-03-06T06:22:46.339Z,7.53
2024-03-06T06:25:47.797Z,7.20
2024-03-06T06:28:49.477Z,7.07
2024-03-06T06:31:51.085Z,6.93
2024-03-06T06:34:52.930Z,7.47
2024-03-06T06:37:54.422Z,7.33
2024-03-06T06:40:56.812Z,7.33
2024-03-06T06:43:58.749Z,7.40
2024-03-06T06:47:00.381Z,6.33
2024-03-06T06:50:06.172Z,6.83
2024-03-06T06:53:07.741Z,7.47
2024-03-06T06:56:09.454Z,7.07
2024-03-06T06:59:11.020Z,7.50
2024-03-06T07:02:12.645Z,7.10
2024-03-06T07:05:14.503Z,6.60
2024-03-06T07:08:16.101Z,7.07
2024-03-06T07:11:19.414Z,7.07
2024-03-06T07:14:21.114Z,6.93
2024-03-06T07:17:22.828Z,6.97
2024-03-06T07:20:24.383Z,7.47
2024-03-06T07:23:25.912Z,7.40
2024-03-06T07:26:30.218Z,6.63
2024-03-06T07:29:31.795Z,7.03
2024-03-06T07:32:33.285Z,7.40
2024-03-06T07:35:37.313Z,6.77
2024-03-06T07:38:38.989Z,7.03
2024-03-06T07:41:40.946Z,7.47
2024-03-06T07:44:42.509Z,7.30
2024-03-06T07:47:44.163Z,6.93
2024-03-06T07:50:45.737Z,7.53
2024-03-06T07:53:47.407Z,7.63
2024-03-06T07:56:49.338Z,7.43
2024-03-06T07:59:52.584Z,8.40
2024-03-06T08:02:54.017Z,8.50
2024-03-06T08:05:55.662Z,8.33
2024-03-06T08:08:58.002Z,9.50
2024-03-06T08:12:01.498Z,9.03
2024-03-06T08:15:04.154Z,8.83
2024-03-06T08:18:05.901Z,9.10
2024-03-06T08:21:07.928Z,9.00
2024-03-06T08:24:09.560Z,7.70
2024-03-06T08:27:11.025Z,7.93
2024-03-06T08:30:13.914Z,7.53
2024-03-06T08:33:15.481Z,7.23
2024-03-06T08:36:17.039Z,8.00
2024-03-06T08:39:18.601Z,7.77
2024-03-06T08:42:20.167Z,7.87
2024-03-06T08:45:21.839Z,8.07
2024-03-06T08:48:23.429Z,8.27
2024-03-06T08:51:26.443Z,7.43
2024-03-06T08:54:27.899Z,7.80
2024-03-06T08:57:31.713Z,8.17
2024-03-06T09:00:33.178Z,7.93
2024-03-06T09:03:34.588Z,8.10
2024-03-06T09:06:36.008Z,7.73
2024-03-06T09:09:38.364Z,7.50
2024-03-06T09:12:40.321Z,7.37
2024-03-06T09:15:41.744Z,7.53
2024-03-06T09:18:43.317Z,6.93
2024-03-06T09:21:44.901Z,7.20
2024-03-06T09:24:46.346Z,6.80
2024-03-06T09:27:47.789Z,6.53
2024-03-06T09:30:49.236Z,7.77
2024-03-06T09:33:50.805Z,7.53
2024-03-06T09:36:52.874Z,7.60
2024-03-06T09:39:54.316Z,6.97
2024-03-06T09:42:56.421Z,7.20
2024-03-06T09:45:58.133Z,7.77
2024-03-06T09:49:00.126Z,8.00
2024-03-06T09:52:04.956Z,7.80
2024-03-06T09:55:10.857Z,8.07
2024-03-06T09:58:12.492Z,7.93
2024-03-06T10:01:15.479Z,7.50
2024-03-06T10:04:22.177Z,7.13
2024-03-06T10:07:23.889Z,7.70
2024-03-06T10:10:25.386Z,7.80
2024-03-06T10:13:26.980Z,8.00
2024-03-06T10:16:28.416Z,7.50
2024-03-06T10:19:31.174Z,7.50
2024-03-06T10:22:32.866Z,8.47
2024-03-06T10:25:34.359Z,7.97
2024-03-06T10:28:36.107Z,8.30
2024-03-06T10:31:37.559Z,8.33
2024-03-06T10:34:41.586Z,8.63
2024-03-06T10:37:45.536Z,8.67
2024-03-06T10:40:47.834Z,8.97
2024-03-06T10:43:55.255Z,9.13
2024-03-06T10:47:01.359Z,8.97
2024-03-06T10:50:05.590Z,8.60
2024-03-06T10:53:11.439Z,7.77
2024-03-06T10:56:13.688Z,9.73
2024-03-06T10:59:17.072Z,8.63
2024-03-06T11:02:19.408Z,8.60
2024-03-06T11:05:21.108Z,8.43
2024-03-06T11:08:23.060Z,8.53
2024-03-06T11:11:25.872Z,8.10
2024-03-06T11:14:27.602Z,7.87
2024-03-06T11:17:29.638Z,9.80
2024-03-06T11:20:34.708Z,9.20
2024-03-06T11:23:36.243Z,8.37
2024-03-06T11:26:37.816Z,8.57
2024-03-06T11:30:11.832Z,9.57
2024-03-06T11:33:17.521Z,8.70
2024-03-06T11:36:24.453Z,9.70
2024-03-06T11:39:31.341Z,9.87
2024-03-06T11:42:39.959Z,10.80
2024-03-06T11:45:45.578Z,10.67
2024-03-06T11:48:56.857Z,10.90
2024-03-06T11:52:00.061Z,11.07
2024-03-06T11:55:01.646Z,11.17
2024-03-06T11:58:04.229Z,12.07
2024-03-06T12:01:06.009Z,11.37
2024-03-06T12:04:07.609Z,12.03
2024-03-06T12:07:10.125Z,11.50
2024-03-06T12:10:12.215Z,11.73
2024-03-06T12:13:14.429Z,11.47
2024-03-06T12:16:15.954Z,12.10
2024-03-06T12:19:17.417Z,11.03
2024-03-06T12:22:20.208Z,11.27
2024-03-06T12:25:26.631Z,11.90
2024-03-06T12:28:28.146Z,11.10
2024-03-06T12:31:29.624Z,11.07
2024-03-06T12:34:32.335Z,10.80
2024-03-06T12:37:34.732Z,11.63
2024-03-06T12:40:36.798Z,10.90
2024-03-06T12:43:38.267Z,10.87
2024-03-06T12:46:40.026Z,11.43
2024-03-06T12:49:41.487Z,11.80
2024-03-06T12:52:46.849Z,10.90
2024-03-06T12:55:49.500Z,11.60
2024-03-06T12:58:51.031Z,10.97
2024-03-06T13:01:52.491Z,11.77
2024-03-06T13:04:54.082Z,10.97
2024-03-06T13:07:55.550Z,10.73
2024-03-06T13:10:57.354Z,11.17
2024-03-06T13:13:59.024Z,10.07
2024-03-06T13:17:03.729Z,11.10
2024-03-06T13:20:05.937Z,11.27
2024-03-06T13:23:07.508Z,10.13
2024-03-06T13:26:09.128Z,10.53
2024-03-06T13:29:10.688Z,9.90
2024-03-06T13:32:12.255Z,10.40
2024-03-06T13:35:14.564Z,9.87
2024-03-06T13:38:16.063Z,10.50
2024-03-06T13:41:17.716Z,9.90
2024-03-06T13:44:19.644Z,10.00
2024-03-06T13:47:21.478Z,10.30
2024-03-06T13:50:24.791Z,9.33
2024-03-06T13:53:26.470Z,10.17
2024-03-06T13:56:27.967Z,10.10
2024-03-06T13:59:32.293Z,9.47
2024-03-06T14:02:33.983Z,9.53
2024-03-06T14:05:35.454Z,10.80
2024-03-06T14:08:39.086Z,9.80
2024-03-06T14:11:41.467Z,9.67
2024-03-06T14:14:43.143Z,10.47
2024-03-06T14:17:44.731Z,9.87
2024-03-06T14:20:46.288Z,10.73
2024-03-06T14:23:47.870Z,10.90
2024-03-06T14:26:50.078Z,11.57
2024-03-06T14:29:51.765Z,11.80
2024-03-06T14:32:53.358Z,12.80
2024-03-06T14:35:55.125Z,13.23
2024-03-06T14:38:56.650Z,13.73
2024-03-06T14:41:58.139Z,14.03
2024-03-06T14:44:59.896Z,13.67
2024-03-06T14:48:01.660Z,13.33
2024-03-06T14:51:03.329Z,14.30
2024-03-06T14:54:04.832Z,14.37
2024-03-06T14:57:07.105Z,13.93
2024-03-06T15:00:09.130Z,15.00
2024-03-06T15:03:10.969Z,13.43
2024-03-06T15:06:13.055Z,13.60
2024-03-06T15:09:21.238Z,13.70
2024-03-06T15:12:22.790Z,13.70
2024-03-06T15:15:24.670Z,15.10
2024-03-06T15:18:26.280Z,15.40
2024-03-06T15:21:27.840Z,14.80
2024-03-06T15:24:29.340Z,14.90
2024-03-06T15:27:30.761Z,13.90
2024-03-06T15:30:33.039Z,14.20
2024-03-06T15:33:34.634Z,15.07
2024-03-06T15:36:36.173Z,15.00
2024-03-06T15:39:37.589Z,15.87
2024-03-06T15:42:39.299Z,16.23
2024-03-06T15:45:40.838Z,15.17
2024-03-06T15:48:42.417Z,14.63
2024-03-06T15:51:43.971Z,15.60
2024-03-06T15:54:45.424Z,13.60
2024-03-06T15:57:46.933Z,14.33
2024-03-06T16:00:48.401Z,14.93
2024-03-06T16:03:53.346Z,15.27
2024-03-06T16:06:54.922Z,14.90
2024-03-06T16:09:57.378Z,15.17
2024-03-06T16:12:58.815Z,14.13
2024-03-06T16:16:00.368Z,13.80
2024-03-06T16:19:01.923Z,13.73
2024-03-06T16:22:03.675Z,12.93
2024-03-06T16:25:07.086Z,14.23
2024-03-06T16:28:08.601Z,15.80
2024-03-06T16:31:10.069Z,15.10
2024-03-06T16:34:11.532Z,15.57
2024-03-06T16:37:13.027Z,16.33
2024-03-06T16:40:14.494Z,21.37
2024-03-06T16:43:16.097Z,19.13
2024-03-06T16:46:18.326Z,15.33
2024-03-06T16:49:19.835Z,13.77
2024-03-06T16:52:22.878Z,15.73
2024-03-06T16:55:24.792Z,15.07
2024-03-06T16:58:26.351Z,15.00
2024-03-06T17:01:28.414Z,15.23
2024-03-06T17:04:30.001Z,14.03
2024-03-06T17:07:31.467Z,13.97
2024-03-06T17:10:33.038Z,11.87
2024-03-06T17:13:38.932Z,14.13
2024-03-06T17:16:40.373Z,14.30
2024-03-06T17:19:41.927Z,13.37
2024-03-06T17:22:43.366Z,13.77
2024-03-06T17:25:45.078Z,13.70
2024-03-06T17:28:50.370Z,14.23
2024-03-06T17:31:53.800Z,15.10
2024-03-06T17:34:55.462Z,15.73
2024-03-06T17:37:57.020Z,15.57
2024-03-06T17:40:58.465Z,14.77
2024-03-06T17:43:59.902Z,15.67
2024-03-06T17:47:01.388Z,14.60
2024-03-06T17:50:07.370Z,15.17
2024-03-06T17:53:10.736Z,14.93
2024-03-06T17:56:12.242Z,16.87
2024-03-06T17:59:13.814Z,15.93
2024-03-06T18:02:15.438Z,15.67
2024-03-06T18:05:17.873Z,15.80
2024-03-06T18:08:19.811Z,15.67
2024-03-06T18:11:22.708Z,17.37
2024-03-06T18:14:24.298Z,16.57
2024-03-06T18:17:26.696Z,19.70
2024-03-06T18:20:30.638Z,18.97
2024-03-06T18:23:32.618Z,29.00
2024-03-06T18:26:34.279Z,43.70
2024-03-06T18:29:35.885Z,47.03
2024-03-06T18:32:37.488Z,45.17
2024-03-06T18:35:39.062Z,18.87
2024-03-06T18:38:40.726Z,15.00
2024-03-06T18:41:42.682Z,14.93
2024-03-06T18:44:44.322Z,19.33
2024-03-06T18:47:47.476Z,24.27
2024-03-06T18:50:49.230Z,13.93
2024-03-06T18:53:50.933Z,13.00
2024-03-06T18:56:54.005Z,12.80
2024-03-06T18:59:55.648Z,14.23
2024-03-06T19:02:57.229Z,14.40
2024-03-06T19:05:58.822Z,14.07
2024-03-06T19:09:00.306Z,13.70
2024-03-06T19:12:01.896Z,15.23
2024-03-06T19:15:04.460Z,15.33
2024-03-06T19:18:06.154Z,17.07
2024-03-06T19:21:07.691Z,16.70
2024-03-06T19:24:09.210Z,15.63
2024-03-06T19:27:10.695Z,18.97
2024-03-06T19:30:12.409Z,18.10
2024-03-06T19:33:13.935Z,20.17
2024-03-06T19:36:15.477Z,17.87
2024-03-06T19:39:18.304Z,19.00
2024-03-06T19:42:20.429Z,19.43
2024-03-06T19:45:22.029Z,17.70
2024-03-06T19:48:23.964Z,19.27
2024-03-06T19:51:25.485Z,19.03
2024-03-06T19:54:30.104Z,17.70
2024-03-06T19:57:31.714Z,18.00
2024-03-06T20:00:34.753Z,19.73
2024-03-06T20:03:36.246Z,17.83
2024-03-06T20:06:38.669Z,18.63
2024-03-06T20:09:41.770Z,19.87
2024-03-06T20:12:43.405Z,19.43
2024-03-06T20:15:48.329Z,20.10
2024-03-06T20:18:49.875Z,21.23
2024-03-06T20:21:51.747Z,19.67
2024-03-06T20:24:53.282Z,20.80
2024-03-06T20:27:54.856Z,22.07
2024-03-06T20:30:56.359Z,22.87
2024-03-06T20:33:57.793Z,21.30
2024-03-06T20:36:59.352Z,21.47
2024-03-06T20:40:00.958Z,22.07
2024-03-06T20:43:02.601Z,22.83
2024-03-06T20:46:04.136Z,25.33
2024-03-06T20:49:07.613Z,21.47
2024-03-06T20:52:10.657Z,18.93
2024-03-06T20:55:12.446Z,17.93
2024-03-06T20:58:14.949Z,17.67
2024-03-06T21:01:16.544Z,17.07
2024-03-06T21:04:18.140Z,17.37
2024-03-06T21:07:19.796Z,17.80
2024-03-06T21:10:21.233Z,17.87
2024-03-06T21:13:22.851Z,17.77
2024-03-06T21:16:24.778Z,16.47
2024-03-06T21:19:26.205Z,18.37
2024-03-06T21:22:28.463Z,16.63
2024-03-06T21:25:29.935Z,16.03
2024-03-06T21:28:31.438Z,16.83
2024-03-06T21:31:32.906Z,16.37
2024-03-06T21:34:34.689Z,15.73
2024-03-06T21:37:36.354Z,16.10
2024-03-06T21:40:38.107Z,15.90
2024-03-06T21:43:39.591Z,16.53
2024-03-06T21:46:41.019Z,16.07
2024-03-06T21:49:42.501Z,15.57
2024-03-06T21:52:44.066Z,16.60
2024-03-06T21:55:45.604Z,16.33
2024-03-06T21:58:47.279Z,16.27
2024-03-06T22:01:48.806Z,14.47
2024-03-06T22:04:50.296Z,15.03
2024-03-06T22:07:52.296Z,14.67
2024-03-06T22:10:53.812Z,14.90
2024-03-06T22:13:56.514Z,14.03
2024-03-06T22:16:58.923Z,14.43
2024-03-06T22:20:00.610Z,15.20
2024-03-06T22:23:02.581Z,13.80
2024-03-06T22:26:04.229Z,14.87
2024-03-06T22:29:06.449Z,14.67
2024-03-06T22:32:07.938Z,14.10
2024-03-06T22:35:11.202Z,13.53
2024-03-06T22:38:12.960Z,11.80
2024-03-06T22:41:24.530Z,12.60
2024-03-06T22:44:26.004Z,12.07
2024-03-06T22:47:27.586Z,11.33
2024-03-06T22:50:29.276Z,11.70
2024-03-06T22:53:30.870Z,11.77
2024-03-06T22:56:33.353Z,12.50
2024-03-06T22:59:35.143Z,11.80
2024-03-06T23:02:36.753Z,11.57
2024-03-06T23:05:39.590Z,12.43
2024-03-06T23:08:41.251Z,12.17
2024-03-06T23:11:42.913Z,12.60
2024-03-06T23:14:44.553Z,12.93
2024-03-06T23:17:47.444Z,12.40
2024-03-06T23:20:50.001Z,10.80
2024-03-06T23:23:51.877Z,12.70
2024-03-06T23:26:53.522Z,11.50
2024-03-06T23:29:55.090Z,11.93
2024-03-06T23:32:56.820Z,13.50
2024-03-06T23:35:58.363Z,14.20
2024-03-06T23:38:59.947Z,13.33
2024-03-06T23:42:03.107Z,14.13
2024-03-06T23:45:05.974Z,13.87
2024-03-06T23:48:07.937Z,13.53
2024-03-06T23:51:09.921Z,10.87
2024-03-06T23:54:11.545Z,12.53
2024-03-06T23:57:13.551Z,11.37
